sensor_id;sensor_type;location;lat;lon;timestamp;P1;durP1;ratioP1;P2;durP2;ratioP2
20743;SDS011;56303;52.160;-0.428;2022-11-20T00:01:13;86.63;;;38.60;;
20743;SDS011;56303;52.160;-0.428;2022-11-20T00:03:42;36.90;;;27.80;;
20743;SDS011;56303;52.160;-0.428;2022-11-20T00:06:10;46.87;;;30.07;;
20743;SDS011;56303;52.160;-0.428;2022-11-20T00:08:42;42.67;;;28.27;;
20743;SDS011;56303;52.160;-0.428;2022-11-20T00:11:10;41.30;;;28.67;;
20743;SDS011;56303;52.160;-0.428;2022-11-20T00:13:45;45.23;;;28.63;;
20743;SDS011;56303;52.160;-0.428;2022-11-20T00:16:14;39.03;;;26.67;;
20743;SDS011;56303;52.160;-0.428;2022-11-20T00:18:43;46.43;;;29.93;;
20743;SDS011;56303;52.160;-0.428;2022-11-20T00:21:12;40.90;;;26.20;;
20743;SDS011;56303;52.160;-0.428;2022-11-20T00:23:40;42.13;;;27.40;;
20743;SDS011;56303;52.160;-0.428;2022-11-20T00:26:08;43.10;;;28.73;;
20743;SDS011;56303;52.160;-0.428;2022-11-20T00:28:37;35.47;;;24.77;;
20743;SDS011;56303;52.160;-0.428;2022-11-20T00:31:05;41.37;;;27.70;;
20743;SDS011;56303;52.160;-0.428;2022-11-20T00:33:37;34.47;;;25.07;;
20743;SDS011;56303;52.160;-0.428;2022-11-20T00:36:05;37.13;;;26.67;;
20743;SDS011;56303;52.160;-0.428;2022-11-20T00:38:34;36.27;;;25.10;;
20743;SDS011;56303;52.160;-0.428;2022-11-20T00:41:02;34.23;;;23.77;;
20743;SDS011;56303;52.160;-0.428;2022-11-20T00:43:33;31.87;;;22.63;;
20743;SDS011;56303;52.160;-0.428;2022-11-20T00:46:01;30.33;;;21.57;;
20743;SDS011;56303;52.160;-0.428;2022-11-20T00:48:29;34.93;;;24.57;;
20743;SDS011;56303;52.160;-0.428;2022-11-20T00:50:57;35.83;;;23.50;;
20743;SDS011;56303;52.160;-0.428;2022-11-20T00:53:24;33.20;;;21.70;;
20743;SDS011;56303;52.160;-0.428;2022-11-20T00:58:24;31.30;;;20.97;;
20743;SDS011;56303;52.160;-0.428;2022-11-20T01:00:59;33.23;;;20.97;;
20743;SDS011;56303;52.160;-0.428;2022-11-20T01:03:27;27.67;;;17.87;;
20743;SDS011;56303;52.160;-0.428;2022-11-20T01:05:59;29.00;;;15.97;;
20743;SDS011;56303;52.160;-0.428;2022-11-20T01:08:31;23.87;;;15.87;;
20743;SDS011;56303;52.160;-0.428;2022-11-20T01:11:10;31.60;;;17.43;;
20743;SDS011;56303;52.160;-0.428;2022-11-20T01:13:38;26.23;;;16.77;;
20743;SDS011;56303;52.160;-0.428;2022-11-20T01:16:15;25.50;;;15.67;;
20743;SDS011;56303;52.160;-0.428;2022-11-20T01:18:47;28.23;;;15.80;;
20743;SDS011;56303;52.160;-0.428;2022-11-20T01:21:22;21.53;;;14.50;;
20743;SDS011;56303;52.160;-0.428;2022-11-20T01:23:55;22.00;;;15.67;;
20743;SDS011;56303;52.160;-0.428;2022-11-20T01:26:23;22.20;;;14.97;;
20743;SDS011;56303;52.160;-0.428;2022-11-20T01:28:54;20.30;;;14.33;;
20743;SDS011;56303;52.160;-0.428;2022-11-20T01:31:23;20.97;;;14.50;;
20743;SDS011;56303;52.160;-0.428;2022-11-20T01:33:52;25.43;;;15.47;;
20743;SDS011;56303;52.160;-0.428;2022-11-20T01:36:21;23.03;;;14.50;;
20743;SDS011;56303;52.160;-0.428;2022-11-20T01:38:53;22.77;;;15.87;;
20743;SDS011;56303;52.160;-0.428;2022-11-20T01:41:21;27.30;;;16.60;;
20743;SDS011;56303;52.160;-0.428;2022-11-20T01:44:08;25.23;;;14.80;;
20743;SDS011;56303;52.160;-0.428;2022-11-20T01:46:38;26.30;;;14.80;;
20743;SDS011;56303;52.160;-0.428;2022-11-20T01:49:19;24.43;;;16.47;;
20743;SDS011;56303;52.160;-0.428;2022-11-20T01:51:51;24.00;;;16.80;;
20743;SDS011;56303;52.160;-0.428;2022-11-20T01:54:26;25.67;;;17.10;;
20743;SDS011;56303;52.160;-0.428;2022-11-20T01:57:02;26.53;;;17.37;;
20743;SDS011;56303;52.160;-0.428;2022-11-20T01:59:30;30.80;;;17.90;;
20743;SDS011;56303;52.160;-0.428;2022-11-20T02:01:57;27.43;;;17.17;;
20743;SDS011;56303;52.160;-0.428;2022-11-20T02:04:24;28.47;;;18.07;;
20743;SDS011;56303;52.160;-0.428;2022-11-20T02:06:54;26.90;;;16.70;;
20743;SDS011;56303;52.160;-0.428;2022-11-20T02:09:25;25.30;;;17.23;;
20743;SDS011;56303;52.160;-0.428;2022-11-20T02:11:53;29.93;;;17.53;;
20743;SDS011;56303;52.160;-0.428;2022-11-20T02:14:20;25.53;;;16.77;;
20743;SDS011;56303;52.160;-0.428;2022-11-20T02:16:48;22.27;;;15.53;;
20743;SDS011;56303;52.160;-0.428;2022-11-20T02:24:39;19.40;;;12.53;;
20743;SDS011;56303;52.160;-0.428;2022-11-20T02:27:09;16.30;;;11.27;;
20743;SDS011;56303;52.160;-0.428;2022-11-20T02:29:49;18.00;;;10.37;;
20743;SDS011;56303;52.160;-0.428;2022-11-20T02:32:33;14.13;;;9.80;;
20743;SDS011;56303;52.160;-0.428;2022-11-20T02:37:47;13.07;;;9.73;;
20743;SDS011;56303;52.160;-0.428;2022-11-20T02:40:16;14.30;;;9.40;;
20743;SDS011;56303;52.160;-0.428;2022-11-20T02:42:43;14.77;;;9.47;;
20743;SDS011;56303;52.160;-0.428;2022-11-20T02:45:10;17.20;;;9.63;;
20743;SDS011;56303;52.160;-0.428;2022-11-20T02:47:37;13.43;;;8.67;;
20743;SDS011;56303;52.160;-0.428;2022-11-20T02:50:04;15.57;;;10.07;;
20743;SDS011;56303;52.160;-0.428;2022-11-20T02:52:31;13.23;;;9.27;;
20743;SDS011;56303;52.160;-0.428;2022-11-20T02:54:58;12.80;;;8.37;;
20743;SDS011;56303;52.160;-0.428;2022-11-20T02:57:25;12.07;;;8.70;;
20743;SDS011;56303;52.160;-0.428;2022-11-20T02:59:52;13.50;;;8.70;;
20743;SDS011;56303;52.160;-0.428;2022-11-20T03:02:19;16.93;;;9.83;;
20743;SDS011;56303;52.160;-0.428;2022-11-20T03:04:46;14.07;;;9.33;;
20743;SDS011;56303;52.160;-0.428;2022-11-20T03:07:13;17.90;;;11.40;;
20743;SDS011;56303;52.160;-0.428;2022-11-20T03:09:40;16.90;;;10.53;;
20743;SDS011;56303;52.160;-0.428;2022-11-20T03:12:07;17.57;;;10.30;;
20743;SDS011;56303;52.160;-0.428;2022-11-20T03:14:34;15.50;;;11.33;;
20743;SDS011;56303;52.160;-0.428;2022-11-20T03:17:00;15.60;;;11.33;;
20743;SDS011;56303;52.160;-0.428;2022-11-20T03:19:27;18.60;;;12.00;;
20743;SDS011;56303;52.160;-0.428;2022-11-20T03:21:54;17.80;;;11.40;;
20743;SDS011;56303;52.160;-0.428;2022-11-20T03:24:21;21.37;;;11.60;;
20743;SDS011;56303;52.160;-0.428;2022-11-20T03:26:47;17.30;;;10.03;;
20743;SDS011;56303;52.160;-0.428;2022-11-20T03:29:14;16.33;;;10.27;;
20743;SDS011;56303;52.160;-0.428;2022-11-20T03:31:41;16.60;;;8.90;;
20743;SDS011;56303;52.160;-0.428;2022-11-20T03:34:08;15.10;;;9.63;;
20743;SDS011;56303;52.160;-0.428;2022-11-20T03:36:37;14.27;;;10.10;;
20743;SDS011;56303;52.160;-0.428;2022-11-20T03:39:05;15.20;;;9.30;;
20743;SDS011;56303;52.160;-0.428;2022-11-20T03:41:35;13.50;;;8.70;;
20743;SDS011;56303;52.160;-0.428;2022-11-20T03:44:04;17.13;;;8.70;;
20743;SDS011;56303;52.160;-0.428;2022-11-20T03:46:32;15.47;;;8.30;;
20743;SDS011;56303;52.160;-0.428;2022-11-20T03:48:59;16.17;;;9.47;;
20743;SDS011;56303;52.160;-0.428;2022-11-20T03:51:28;16.83;;;8.70;;
20743;SDS011;56303;52.160;-0.428;2022-11-20T03:53:57;15.13;;;9.40;;
20743;SDS011;56303;52.160;-0.428;2022-11-20T03:56:27;21.33;;;9.97;;
20743;SDS011;56303;52.160;-0.428;2022-11-20T03:58:56;16.80;;;9.77;;
20743;SDS011;56303;52.160;-0.428;2022-11-20T04:01:31;15.80;;;8.80;;
20743;SDS011;56303;52.160;-0.428;2022-11-20T04:04:00;18.90;;;10.13;;
20743;SDS011;56303;52.160;-0.428;2022-11-20T04:06:33;14.27;;;8.60;;
20743;SDS011;56303;52.160;-0.428;2022-11-20T04:09:02;12.63;;;8.60;;
20743;SDS011;56303;52.160;-0.428;2022-11-20T04:11:36;14.30;;;8.77;;
20743;SDS011;56303;52.160;-0.428;2022-11-20T04:14:06;15.00;;;7.57;;
20743;SDS011;56303;52.160;-0.428;2022-11-20T04:16:38;15.87;;;8.70;;
20743;SDS011;56303;52.160;-0.428;2022-11-20T04:19:06;13.20;;;7.53;;
20743;SDS011;56303;52.160;-0.428;2022-11-20T04:21:36;9.70;;;6.87;;
20743;SDS011;56303;52.160;-0.428;2022-11-20T04:24:03;11.90;;;6.87;;
20743;SDS011;56303;52.160;-0.428;2022-11-20T04:26:30;10.07;;;6.80;;
20743;SDS011;56303;52.160;-0.428;2022-11-20T04:28:58;14.80;;;6.80;;
20743;SDS011;56303;52.160;-0.428;2022-11-20T04:31:26;11.67;;;6.80;;
20743;SDS011;56303;52.160;-0.428;2022-11-20T04:34:01;14.53;;;6.50;;
20743;SDS011;56303;52.160;-0.428;2022-11-20T04:36:29;16.07;;;6.87;;
20743;SDS011;56303;52.160;-0.428;2022-11-20T04:38:57;9.80;;;5.70;;
20743;SDS011;56303;52.160;-0.428;2022-11-20T04:41:26;10.70;;;6.10;;
20743;SDS011;56303;52.160;-0.428;2022-11-20T04:43:58;12.97;;;6.70;;
20743;SDS011;56303;52.160;-0.428;2022-11-20T04:46:30;9.57;;;6.37;;
20743;SDS011;56303;52.160;-0.428;2022-11-20T04:48:59;14.07;;;6.60;;
20743;SDS011;56303;52.160;-0.428;2022-11-20T04:51:26;15.10;;;6.00;;
20743;SDS011;56303;52.160;-0.428;2022-11-20T04:53:53;10.73;;;6.03;;
20743;SDS011;56303;52.160;-0.428;2022-11-20T04:56:20;15.77;;;7.57;;
20743;SDS011;56303;52.160;-0.428;2022-11-20T04:58:48;11.57;;;6.03;;
20743;SDS011;56303;52.160;-0.428;2022-11-20T05:01:15;14.73;;;7.07;;
20743;SDS011;56303;52.160;-0.428;2022-11-20T05:03:48;10.67;;;7.30;;
20743;SDS011;56303;52.160;-0.428;2022-11-20T05:06:18;9.63;;;5.43;;
20743;SDS011;56303;52.160;-0.428;2022-11-20T05:08:46;11.70;;;6.67;;
20743;SDS011;56303;52.160;-0.428;2022-11-20T05:11:14;14.53;;;6.73;;
20743;SDS011;56303;52.160;-0.428;2022-11-20T05:13:43;13.53;;;6.83;;
20743;SDS011;56303;52.160;-0.428;2022-11-20T05:16:14;13.87;;;7.63;;
20743;SDS011;56303;52.160;-0.428;2022-11-20T05:18:43;10.20;;;6.33;;
20743;SDS011;56303;52.160;-0.428;2022-11-20T05:21:10;13.63;;;6.93;;
20743;SDS011;56303;52.160;-0.428;2022-11-20T05:23:38;15.93;;;7.23;;
20743;SDS011;56303;52.160;-0.428;2022-11-20T05:26:07;13.17;;;6.90;;
20743;SDS011;56303;52.160;-0.428;2022-11-20T05:28:38;11.10;;;6.60;;
20743;SDS011;56303;52.160;-0.428;2022-11-20T05:31:12;14.17;;;6.90;;
20743;SDS011;56303;52.160;-0.428;2022-11-20T05:33:41;16.07;;;9.27;;
20743;SDS011;56303;52.160;-0.428;2022-11-20T05:36:10;13.30;;;8.40;;
20743;SDS011;56303;52.160;-0.428;2022-11-20T05:38:38;15.87;;;8.97;;
20743;SDS011;56303;52.160;-0.428;2022-11-20T05:41:06;16.70;;;8.60;;
20743;SDS011;56303;52.160;-0.428;2022-11-20T05:43:34;14.70;;;7.93;;
20743;SDS011;56303;52.160;-0.428;2022-11-20T05:46:02;13.97;;;8.90;;
20743;SDS011;56303;52.160;-0.428;2022-11-20T05:48:29;15.40;;;9.20;;
20743;SDS011;56303;52.160;-0.428;2022-11-20T05:50:57;14.73;;;9.60;;
20743;SDS011;56303;52.160;-0.428;2022-11-20T05:53:25;15.93;;;9.60;;
20743;SDS011;56303;52.160;-0.428;2022-11-20T05:55:59;16.73;;;8.87;;
20743;SDS011;56303;52.160;-0.428;2022-11-20T05:58:32;17.73;;;9.23;;
20743;SDS011;56303;52.160;-0.428;2022-11-20T06:01:10;12.47;;;8.57;;
20743;SDS011;56303;52.160;-0.428;2022-11-20T06:03:40;16.57;;;10.33;;
20743;SDS011;56303;52.160;-0.428;2022-11-20T06:06:14;11.77;;;9.07;;
20743;SDS011;56303;52.160;-0.428;2022-11-20T06:08:41;14.47;;;8.70;;
20743;SDS011;56303;52.160;-0.428;2022-11-20T06:11:09;15.80;;;10.80;;
20743;SDS011;56303;52.160;-0.428;2022-11-20T06:13:38;15.70;;;10.20;;
20743;SDS011;56303;52.160;-0.428;2022-11-20T06:16:07;19.47;;;11.80;;
20743;SDS011;56303;52.160;-0.428;2022-11-20T06:18:35;15.70;;;10.93;;
20743;SDS011;56303;52.160;-0.428;2022-11-20T06:21:08;12.60;;;8.67;;
20743;SDS011;56303;52.160;-0.428;2022-11-20T06:23:37;14.13;;;9.47;;
20743;SDS011;56303;52.160;-0.428;2022-11-20T06:26:15;13.63;;;8.93;;
20743;SDS011;56303;52.160;-0.428;2022-11-20T06:28:44;16.27;;;10.00;;
20743;SDS011;56303;52.160;-0.428;2022-11-20T06:31:12;13.97;;;10.20;;
20743;SDS011;56303;52.160;-0.428;2022-11-20T06:33:41;14.50;;;9.40;;
20743;SDS011;56303;52.160;-0.428;2022-11-20T06:36:09;11.97;;;8.53;;
20743;SDS011;56303;52.160;-0.428;2022-11-20T06:38:38;12.63;;;8.03;;
20743;SDS011;56303;52.160;-0.428;2022-11-20T06:41:06;11.27;;;8.53;;
20743;SDS011;56303;52.160;-0.428;2022-11-20T06:43:36;11.00;;;8.67;;
20743;SDS011;56303;52.160;-0.428;2022-11-20T06:46:03;9.93;;;8.60;;
20743;SDS011;56303;52.160;-0.428;2022-11-20T06:48:30;12.00;;;8.07;;
20743;SDS011;56303;52.160;-0.428;2022-11-20T06:50:57;11.27;;;7.93;;
20743;SDS011;56303;52.160;-0.428;2022-11-20T06:53:24;8.17;;;7.10;;
20743;SDS011;56303;52.160;-0.428;2022-11-20T06:55:51;10.33;;;7.70;;
20743;SDS011;56303;52.160;-0.428;2022-11-20T06:58:18;10.37;;;8.13;;
20743;SDS011;56303;52.160;-0.428;2022-11-20T07:00:45;10.17;;;7.63;;
20743;SDS011;56303;52.160;-0.428;2022-11-20T07:03:12;12.30;;;7.47;;
20743;SDS011;56303;52.160;-0.428;2022-11-20T07:05:39;9.80;;;6.57;;
20743;SDS011;56303;52.160;-0.428;2022-11-20T07:08:06;9.53;;;6.67;;
20743;SDS011;56303;52.160;-0.428;2022-11-20T07:10:34;9.13;;;7.47;;
20743;SDS011;56303;52.160;-0.428;2022-11-20T07:13:01;8.00;;;7.20;;
20743;SDS011;56303;52.160;-0.428;2022-11-20T07:15:28;8.33;;;7.23;;
20743;SDS011;56303;52.160;-0.428;2022-11-20T07:17:55;9.33;;;7.10;;
20743;SDS011;56303;52.160;-0.428;2022-11-20T07:20:24;7.70;;;6.57;;
20743;SDS011;56303;52.160;-0.428;2022-11-20T07:22:54;7.97;;;6.90;;
20743;SDS011;56303;52.160;-0.428;2022-11-20T07:25:25;9.83;;;6.60;;
20743;SDS011;56303;52.160;-0.428;2022-11-20T07:27:56;9.00;;;7.10;;
20743;SDS011;56303;52.160;-0.428;2022-11-20T07:30:24;7.70;;;6.90;;
20743;SDS011;56303;52.160;-0.428;2022-11-20T07:32:52;10.30;;;6.77;;
20743;SDS011;56303;52.160;-0.428;2022-11-20T07:35:19;7.00;;;6.10;;
20743;SDS011;56303;52.160;-0.428;2022-11-20T07:37:46;9.37;;;6.37;;
20743;SDS011;56303;52.160;-0.428;2022-11-20T07:40:15;8.00;;;6.63;;
20743;SDS011;56303;52.160;-0.428;2022-11-20T07:42:52;8.33;;;6.27;;
20743;SDS011;56303;52.160;-0.428;2022-11-20T07:45:20;9.13;;;7.63;;
20743;SDS011;56303;52.160;-0.428;2022-11-20T07:47:49;9.13;;;6.40;;
20743;SDS011;56303;52.160;-0.428;2022-11-20T07:50:16;8.60;;;6.30;;
20743;SDS011;56303;52.160;-0.428;2022-11-20T07:52:44;7.57;;;5.77;;
20743;SDS011;56303;52.160;-0.428;2022-11-20T07:55:11;9.33;;;6.27;;
20743;SDS011;56303;52.160;-0.428;2022-11-20T07:57:38;7.17;;;5.67;;
20743;SDS011;56303;52.160;-0.428;2022-11-20T08:00:05;8.73;;;5.80;;
20743;SDS011;56303;52.160;-0.428;2022-11-20T08:02:39;8.83;;;5.67;;
20743;SDS011;56303;52.160;-0.428;2022-11-20T08:05:07;11.20;;;5.17;;
20743;SDS011;56303;52.160;-0.428;2022-11-20T08:07:38;8.10;;;5.20;;
20743;SDS011;56303;52.160;-0.428;2022-11-20T08:10:07;11.00;;;5.33;;
20743;SDS011;56303;52.160;-0.428;2022-11-20T08:12:35;9.07;;;5.30;;
20743;SDS011;56303;52.160;-0.428;2022-11-20T08:15:21;10.33;;;5.27;;
20743;SDS011;56303;52.160;-0.428;2022-11-20T08:17:47;11.20;;;5.60;;
20743;SDS011;56303;52.160;-0.428;2022-11-20T08:20:34;11.27;;;5.67;;
20743;SDS011;56303;52.160;-0.428;2022-11-20T08:23:02;9.30;;;6.10;;
20743;SDS011;56303;52.160;-0.428;2022-11-20T08:25:32;9.57;;;5.27;;
20743;SDS011;56303;52.160;-0.428;2022-11-20T08:28:00;9.97;;;5.53;;
20743;SDS011;56303;52.160;-0.428;2022-11-20T08:30:45;8.33;;;4.87;;
20743;SDS011;56303;52.160;-0.428;2022-11-20T08:33:12;7.77;;;5.60;;
20743;SDS011;56303;52.160;-0.428;2022-11-20T08:35:38;10.77;;;5.37;;
20743;SDS011;56303;52.160;-0.428;2022-11-20T08:38:08;10.47;;;5.57;;
20743;SDS011;56303;52.160;-0.428;2022-11-20T08:40:35;9.53;;;5.60;;
20743;SDS011;56303;52.160;-0.428;2022-11-20T08:43:01;14.63;;;6.37;;
20743;SDS011;56303;52.160;-0.428;2022-11-20T08:45:28;8.73;;;5.47;;
20743;SDS011;56303;52.160;-0.428;2022-11-20T08:48:00;10.77;;;5.30;;
20743;SDS011;56303;52.160;-0.428;2022-11-20T08:50:31;9.40;;;5.10;;
20743;SDS011;56303;52.160;-0.428;2022-11-20T08:53:03;9.83;;;5.63;;
20743;SDS011;56303;52.160;-0.428;2022-11-20T08:55:30;10.70;;;4.47;;
20743;SDS011;56303;52.160;-0.428;2022-11-20T08:57:57;10.57;;;5.40;;
20743;SDS011;56303;52.160;-0.428;2022-11-20T09:00:24;7.50;;;4.37;;
20743;SDS011;56303;52.160;-0.428;2022-11-20T09:02:51;8.87;;;5.47;;
20743;SDS011;56303;52.160;-0.428;2022-11-20T09:05:18;10.90;;;5.37;;
20743;SDS011;56303;52.160;-0.428;2022-11-20T09:07:45;10.50;;;4.97;;
20743;SDS011;56303;52.160;-0.428;2022-11-20T09:10:11;9.23;;;4.83;;
20743;SDS011;56303;52.160;-0.428;2022-11-20T09:12:54;10.73;;;4.60;;
20743;SDS011;56303;52.160;-0.428;2022-11-20T09:15:22;9.07;;;4.40;;
20743;SDS011;56303;52.160;-0.428;2022-11-20T09:17:52;12.97;;;4.73;;
20743;SDS011;56303;52.160;-0.428;2022-11-20T09:20:27;13.47;;;4.50;;
20743;SDS011;56303;52.160;-0.428;2022-11-20T09:22:56;10.80;;;4.47;;
20743;SDS011;56303;52.160;-0.428;2022-11-20T09:25:23;8.67;;;4.60;;
20743;SDS011;56303;52.160;-0.428;2022-11-20T09:27:57;8.90;;;4.30;;
20743;SDS011;56303;52.160;-0.428;2022-11-20T09:30:25;9.20;;;3.93;;
20743;SDS011;56303;52.160;-0.428;2022-11-20T09:32:53;10.57;;;3.80;;
20743;SDS011;56303;52.160;-0.428;2022-11-20T09:35:20;10.30;;;4.00;;
20743;SDS011;56303;52.160;-0.428;2022-11-20T09:37:47;8.20;;;3.80;;
20743;SDS011;56303;52.160;-0.428;2022-11-20T09:48:31;10.27;;;3.67;;
20743;SDS011;56303;52.160;-0.428;2022-11-20T09:56:25;12.30;;;3.97;;
20743;SDS011;56303;52.160;-0.428;2022-11-20T09:58:53;10.53;;;3.53;;
20743;SDS011;56303;52.160;-0.428;2022-11-20T10:01:26;10.80;;;3.10;;
20743;SDS011;56303;52.160;-0.428;2022-11-20T10:04:03;10.57;;;3.40;;
20743;SDS011;56303;52.160;-0.428;2022-11-20T10:06:47;10.47;;;4.30;;
20743;SDS011;56303;52.160;-0.428;2022-11-20T10:09:54;11.90;;;3.63;;
20743;SDS011;56303;52.160;-0.428;2022-11-20T10:26:06;16.00;;;4.30;;
20743;SDS011;56303;52.160;-0.428;2022-11-20T10:37:24;13.13;;;3.90;;
20743;SDS011;56303;52.160;-0.428;2022-11-20T10:42:53;14.90;;;3.80;;
20743;SDS011;56303;52.160;-0.428;2022-11-20T10:45:32;11.83;;;4.57;;
20743;SDS011;56303;52.160;-0.428;2022-11-20T10:48:10;12.17;;;3.90;;
20743;SDS011;56303;52.160;-0.428;2022-11-20T10:50:48;16.97;;;4.20;;
20743;SDS011;56303;52.160;-0.428;2022-11-20T10:53:45;16.90;;;3.60;;
20743;SDS011;56303;52.160;-0.428;2022-11-20T11:01:53;13.70;;;4.33;;
20743;SDS011;56303;52.160;-0.428;2022-11-20T11:06:50;12.97;;;3.80;;
20743;SDS011;56303;52.160;-0.428;2022-11-20T11:09:23;12.97;;;4.47;;
20743;SDS011;56303;52.160;-0.428;2022-11-20T11:12:05;15.30;;;5.10;;
20743;SDS011;56303;52.160;-0.428;2022-11-20T11:14:41;15.67;;;4.60;;
20743;SDS011;56303;52.160;-0.428;2022-11-20T11:20:01;16.67;;;4.13;;
20743;SDS011;56303;52.160;-0.428;2022-11-20T11:22:29;16.50;;;4.53;;
20743;SDS011;56303;52.160;-0.428;2022-11-20T11:24:58;16.67;;;5.00;;
20743;SDS011;56303;52.160;-0.428;2022-11-20T11:27:26;18.83;;;5.70;;
20743;SDS011;56303;52.160;-0.428;2022-11-20T11:30:12;16.17;;;4.20;;
20743;SDS011;56303;52.160;-0.428;2022-11-20T11:32:41;14.87;;;4.83;;
20743;SDS011;56303;52.160;-0.428;2022-11-20T11:35:28;18.17;;;4.47;;
20743;SDS011;56303;52.160;-0.428;2022-11-20T11:38:01;14.37;;;4.57;;
20743;SDS011;56303;52.160;-0.428;2022-11-20T11:40:43;15.30;;;4.00;;
20743;SDS011;56303;52.160;-0.428;2022-11-20T11:43:23;14.13;;;4.40;;
20743;SDS011;56303;52.160;-0.428;2022-11-20T11:49:08;14.33;;;4.30;;
20743;SDS011;56303;52.160;-0.428;2022-11-20T11:54:35;17.20;;;4.83;;
20743;SDS011;56303;52.160;-0.428;2022-11-20T12:05:11;16.90;;;4.67;;
20743;SDS011;56303;52.160;-0.428;2022-11-20T12:07:42;16.57;;;4.67;;
20743;SDS011;56303;52.160;-0.428;2022-11-20T12:10:14;18.17;;;4.03;;
20743;SDS011;56303;52.160;-0.428;2022-11-20T12:15:40;14.13;;;4.73;;
20743;SDS011;56303;52.160;-0.428;2022-11-20T12:18:14;15.10;;;5.10;;
20743;SDS011;56303;52.160;-0.428;2022-11-20T12:20:48;17.53;;;4.80;;
20743;SDS011;56303;52.160;-0.428;2022-11-20T12:23:26;12.13;;;4.03;;
20743;SDS011;56303;52.160;-0.428;2022-11-20T12:25:59;11.73;;;4.10;;
20743;SDS011;56303;52.160;-0.428;2022-11-20T12:37:04;13.77;;;3.93;;
20743;SDS011;56303;52.160;-0.428;2022-11-20T12:39:57;11.90;;;4.30;;
20743;SDS011;56303;52.160;-0.428;2022-11-20T12:45:35;12.30;;;4.50;;
20743;SDS011;56303;52.160;-0.428;2022-11-20T12:48:33;11.17;;;3.87;;
20743;SDS011;56303;52.160;-0.428;2022-11-20T12:51:19;14.40;;;4.20;;
20743;SDS011;56303;52.160;-0.428;2022-11-20T13:08:14;11.67;;;4.37;;
20743;SDS011;56303;52.160;-0.428;2022-11-20T13:16:10;15.30;;;4.37;;
20743;SDS011;56303;52.160;-0.428;2022-11-20T13:19:14;13.30;;;3.93;;
20743;SDS011;56303;52.160;-0.428;2022-11-20T13:21:43;15.03;;;4.17;;
20743;SDS011;56303;52.160;-0.428;2022-11-20T13:26:46;13.57;;;3.70;;
20743;SDS011;56303;52.160;-0.428;2022-11-20T13:29:17;9.90;;;4.00;;
20743;SDS011;56303;52.160;-0.428;2022-11-20T13:31:45;13.97;;;4.20;;
20743;SDS011;56303;52.160;-0.428;2022-11-20T13:34:23;9.67;;;3.77;;
20743;SDS011;56303;52.160;-0.428;2022-11-20T13:36:53;13.73;;;4.17;;
20743;SDS011;56303;52.160;-0.428;2022-11-20T13:39:26;9.47;;;3.50;;
20743;SDS011;56303;52.160;-0.428;2022-11-20T13:42:18;15.57;;;3.80;;
20743;SDS011;56303;52.160;-0.428;2022-11-20T13:44:53;11.50;;;3.40;;
20743;SDS011;56303;52.160;-0.428;2022-11-20T13:47:25;10.37;;;3.70;;
20743;SDS011;56303;52.160;-0.428;2022-11-20T13:49:54;16.10;;;3.73;;
20743;SDS011;56303;52.160;-0.428;2022-11-20T13:53:08;11.10;;;3.83;;
20743;SDS011;56303;52.160;-0.428;2022-11-20T13:55:40;8.47;;;3.10;;
20743;SDS011;56303;52.160;-0.428;2022-11-20T13:58:24;14.70;;;4.77;;
20743;SDS011;56303;52.160;-0.428;2022-11-20T14:01:29;12.37;;;4.80;;
20743;SDS011;56303;52.160;-0.428;2022-11-20T14:04:05;14.37;;;3.10;;
20743;SDS011;56303;52.160;-0.428;2022-11-20T14:06:43;11.63;;;3.43;;
20743;SDS011;56303;52.160;-0.428;2022-11-20T14:09:13;11.73;;;4.30;;
20743;SDS011;56303;52.160;-0.428;2022-11-20T14:11:53;10.47;;;3.13;;
20743;SDS011;56303;52.160;-0.428;2022-11-20T14:14:21;12.87;;;3.70;;
20743;SDS011;56303;52.160;-0.428;2022-11-20T14:16:51;14.73;;;3.47;;
20743;SDS011;56303;52.160;-0.428;2022-11-20T14:21:49;9.20;;;2.93;;
20743;SDS011;56303;52.160;-0.428;2022-11-20T14:24:21;14.40;;;3.67;;
20743;SDS011;56303;52.160;-0.428;2022-11-20T14:26:50;7.57;;;2.90;;
20743;SDS011;56303;52.160;-0.428;2022-11-20T14:29:19;11.07;;;3.57;;
20743;SDS011;56303;52.160;-0.428;2022-11-20T14:31:50;13.10;;;4.37;;
20743;SDS011;56303;52.160;-0.428;2022-11-20T14:34:27;14.93;;;4.20;;
20743;SDS011;56303;52.160;-0.428;2022-11-20T14:36:59;9.30;;;3.47;;
20743;SDS011;56303;52.160;-0.428;2022-11-20T14:42:00;12.57;;;3.70;;
20743;SDS011;56303;52.160;-0.428;2022-11-20T14:44:31;15.20;;;4.60;;
20743;SDS011;56303;52.160;-0.428;2022-11-20T14:47:00;10.53;;;3.30;;
20743;SDS011;56303;52.160;-0.428;2022-11-20T14:49:30;12.57;;;4.20;;
20743;SDS011;56303;52.160;-0.428;2022-11-20T14:52:02;13.17;;;4.17;;
20743;SDS011;56303;52.160;-0.428;2022-11-20T14:54:47;13.87;;;4.40;;
20743;SDS011;56303;52.160;-0.428;2022-11-20T14:57:23;14.13;;;3.67;;
20743;SDS011;56303;52.160;-0.428;2022-11-20T15:00:17;11.27;;;3.53;;
20743;SDS011;56303;52.160;-0.428;2022-11-20T15:02:47;14.93;;;3.70;;
20743;SDS011;56303;52.160;-0.428;2022-11-20T15:05:16;13.43;;;4.60;;
20743;SDS011;56303;52.160;-0.428;2022-11-20T15:07:45;12.73;;;3.83;;
20743;SDS011;56303;52.160;-0.428;2022-11-20T15:10:21;14.27;;;4.67;;
20743;SDS011;56303;52.160;-0.428;2022-11-20T15:12:50;11.67;;;3.10;;
20743;SDS011;56303;52.160;-0.428;2022-11-20T15:15:32;14.03;;;5.20;;
20743;SDS011;56303;52.160;-0.428;2022-11-20T15:18:05;14.27;;;3.77;;
20743;SDS011;56303;52.160;-0.428;2022-11-20T15:20:36;15.07;;;4.27;;
20743;SDS011;56303;52.160;-0.428;2022-11-20T15:23:08;16.77;;;5.00;;
20743;SDS011;56303;52.160;-0.428;2022-11-20T15:25:38;11.80;;;3.43;;
20743;SDS011;56303;52.160;-0.428;2022-11-20T15:30:41;13.47;;;4.23;;
20743;SDS011;56303;52.160;-0.428;2022-11-20T15:33:08;12.23;;;4.30;;
20743;SDS011;56303;52.160;-0.428;2022-11-20T15:35:36;11.67;;;3.70;;
20743;SDS011;56303;52.160;-0.428;2022-11-20T15:38:03;13.17;;;4.03;;
20743;SDS011;56303;52.160;-0.428;2022-11-20T15:40:30;9.93;;;3.60;;
20743;SDS011;56303;52.160;-0.428;2022-11-20T15:42:57;12.80;;;4.30;;
20743;SDS011;56303;52.160;-0.428;2022-11-20T15:48:09;13.97;;;4.00;;
20743;SDS011;56303;52.160;-0.428;2022-11-20T15:53:37;11.13;;;4.00;;
20743;SDS011;56303;52.160;-0.428;2022-11-20T15:56:07;13.90;;;4.17;;
20743;SDS011;56303;52.160;-0.428;2022-11-20T15:58:38;13.90;;;4.63;;
20743;SDS011;56303;52.160;-0.428;2022-11-20T16:01:05;16.03;;;4.73;;
20743;SDS011;56303;52.160;-0.428;2022-11-20T16:03:36;16.23;;;5.10;;
20743;SDS011;56303;52.160;-0.428;2022-11-20T16:06:03;15.40;;;4.63;;
20743;SDS011;56303;52.160;-0.428;2022-11-20T16:08:29;16.40;;;5.07;;
20743;SDS011;56303;52.160;-0.428;2022-11-20T16:10:56;12.43;;;3.77;;
20743;SDS011;56303;52.160;-0.428;2022-11-20T16:13:23;14.83;;;4.40;;
20743;SDS011;56303;52.160;-0.428;2022-11-20T16:16:22;10.60;;;3.83;;
20743;SDS011;56303;52.160;-0.428;2022-11-20T16:18:54;9.83;;;3.80;;
20743;SDS011;56303;52.160;-0.428;2022-11-20T16:21:21;14.00;;;4.47;;
20743;SDS011;56303;52.160;-0.428;2022-11-20T16:23:59;9.10;;;3.70;;
20743;SDS011;56303;52.160;-0.428;2022-11-20T16:26:28;7.40;;;3.20;;
20743;SDS011;56303;52.160;-0.428;2022-11-20T16:28:57;9.83;;;3.67;;
20743;SDS011;56303;52.160;-0.428;2022-11-20T16:31:25;10.10;;;4.00;;
20743;SDS011;56303;52.160;-0.428;2022-11-20T16:33:52;10.20;;;3.70;;
20743;SDS011;56303;52.160;-0.428;2022-11-20T16:36:22;13.00;;;4.43;;
20743;SDS011;56303;52.160;-0.428;2022-11-20T16:38:54;10.00;;;3.90;;
20743;SDS011;56303;52.160;-0.428;2022-11-20T16:41:21;9.87;;;3.20;;
20743;SDS011;56303;52.160;-0.428;2022-11-20T16:43:49;7.03;;;2.93;;
20743;SDS011;56303;52.160;-0.428;2022-11-20T16:46:19;8.73;;;3.33;;
20743;SDS011;56303;52.160;-0.428;2022-11-20T16:48:53;6.90;;;2.13;;